Time;durP1;ratioP1;P1;durP2;ratioP2;P2;SDS_P1;SDS_P2;PMS_P1;PMS_P2;Temp;Humidity;BMP_temperature;BMP_pressure;BME280_temperature;BME280_humidity;BME280_pressure;Samples;Min_cycle;Max_cycle;Signal;HPM_P1;HPM_P2
2022/01/20 00:03:23;;;;;;;23.48;4.47;;;;;;;2.00;100.00;100486.31;4992679;28;20041;-88
2022/01/20 00:09:09;;;;;;;29.80;4.40;;;;;;;1.92;100.00;100498.50;5024030;28;20013;-87
2022/01/20 00:28:14;;;;;;;24.70;4.05;;;;;;;1.75;100.00;100495.72;5015580;28;20473;-88
2022/01/20 00:38:15;;;;;;;32.72;4.38;;;;;;;1.65;100.00;100489.50;5015372;28;20026;-87
2022/01/20 00:40:40;;;;;;;23.85;4.53;;;;;;;1.61;100.00;100485.03;5014944;28;20025;-87
2022/01/20 00:43:06;;;;;;;30.90;5.05;;;;;;;1.53;100.00;100484.97;5014484;28;20463;-88
2022/01/20 00:45:31;;;;;;;29.73;4.53;;;;;;;1.57;100.00;100486.78;5014127;28;20037;-87
2022/01/20 00:47:57;;;;;;;26.80;4.85;;;;;;;1.54;100.00;100492.00;5014151;28;20461;-87
2022/01/20 00:50:24;;;;;;;25.48;4.57;;;;;;;1.56;100.00;100487.63;5015085;28;20030;-86
2022/01/20 00:52:50;;;;;;;27.65;4.53;;;;;;;1.57;100.00;100484.16;5013607;28;20037;-87
2022/01/20 00:55:18;;;;;;;24.45;4.45;;;;;;;1.61;100.00;100483.31;5013578;28;20386;-87
2022/01/20 00:57:46;;;;;;;26.75;4.38;;;;;;;1.59;100.00;100479.78;5014708;28;20108;-86
2022/01/20 01:00:15;;;;;;;20.98;4.60;;;;;;;1.58;100.00;100478.00;5014453;28;20569;-87
2022/01/20 01:02:41;;;;;;;26.70;4.63;;;;;;;1.59;100.00;100478.88;5014822;28;20030;-87
2022/01/20 01:05:08;;;;;;;26.20;4.60;;;;;;;1.58;100.00;100485.91;5013325;28;20032;-86
2022/01/20 01:07:48;;;;;;;23.70;5.28;;;;;;;1.57;100.00;100486.78;5013283;28;20037;-86
2022/01/20 01:10:20;;;;;;;33.60;4.57;;;;;;;1.65;100.00;100484.22;5013154;28;20030;-87
2022/01/20 01:12:52;;;;;;;24.52;4.68;;;;;;;1.58;100.00;100483.25;5014593;28;20501;-87
2022/01/20 01:15:32;;;;;;;31.58;4.70;;;;;;;1.61;100.00;100493.81;5014168;28;20402;-87
2022/01/20 01:23:25;;;;;;;31.73;4.93;;;;;;;1.77;100.00;100491.34;5013335;28;20029;-85
2022/01/20 01:25:51;;;;;;;22.88;4.00;;;;;;;1.67;100.00;100504.44;5014506;28;20079;-87
2022/01/20 01:28:18;;;;;;;27.58;4.72;;;;;;;1.67;100.00;100493.91;5012827;28;20021;-88
2022/01/20 01:31:13;;;;;;;29.33;5.35;;;;;;;1.75;100.00;100485.19;5012668;28;20483;-86
2022/01/20 01:33:38;;;;;;;25.08;4.32;;;;;;;1.75;100.00;100480.78;5014025;28;20372;-87
2022/01/20 01:36:06;;;;;;;29.10;4.75;;;;;;;1.71;100.00;100483.38;5012668;28;20415;-87
2022/01/20 01:38:38;;;;;;;25.73;4.05;;;;;;;1.75;100.00;100480.78;5013053;28;20083;-87
2022/01/20 01:41:14;;;;;;;34.00;5.13;;;;;;;1.76;100.00;100481.69;5013290;28;20026;-87
2022/01/20 01:43:43;;;;;;;31.52;4.60;;;;;;;1.80;100.00;100487.88;5012591;28;20383;-86
2022/01/20 01:46:10;;;;;;;23.02;4.38;;;;;;;1.76;100.00;100477.28;5014140;28;20029;-86
2022/01/20 01:48:35;;;;;;;24.92;4.32;;;;;;;1.76;100.00;100482.56;5012588;28;20491;-87
2022/01/20 01:51:01;;;;;;;24.20;4.05;;;;;;;1.83;100.00;100480.84;5013262;28;20029;-88
2022/01/20 01:53:29;;;;;;;25.15;3.88;;;;;;;1.76;100.00;100484.31;5012515;28;20026;-87
2022/01/20 01:55:55;;;;;;;26.25;4.13;;;;;;;1.65;100.00;100479.81;5013835;28;20026;-87
2022/01/20 01:58:21;;;;;;;27.67;4.50;;;;;;;1.67;100.00;100483.38;5012494;28;20029;-87
2022/01/20 02:00:46;;;;;;;25.45;4.07;;;;;;;1.72;100.00;100479.91;5013880;28;20025;-87
2022/01/20 02:03:14;;;;;;;26.98;4.20;;;;;;;1.72;100.00;100488.69;5012290;28;20022;-87
2022/01/20 02:05:56;;;;;;;27.98;3.80;;;;;;;1.75;100.00;100479.94;5012422;28;20372;-88
2022/01/20 02:08:55;;;;;;;26.52;4.13;;;;;;;1.73;100.00;100477.25;5012358;28;20032;-87
2022/01/20 02:19:26;;;;;;;33.67;3.47;;;;;;;1.83;100.00;100466.84;5013831;28;19997;-88
2022/01/20 02:21:55;;;;;;;12.95;3.05;;;;;;;1.85;100.00;100458.09;5012692;28;20026;-88
2022/01/20 02:24:20;;;;;;;24.70;4.22;;;;;;;1.86;100.00;100467.72;5012338;28;20018;-86
2022/01/20 02:26:46;;;;;;;20.60;3.03;;;;;;;1.87;100.00;100476.50;5013858;28;20033;-86
2022/01/20 02:29:12;;;;;;;19.00;3.33;;;;;;;1.93;100.00;100473.06;5013480;28;20030;-86
2022/01/20 02:34:59;;;;;;;14.35;2.88;;;;;;;1.93;100.00;100457.25;5021533;22;20112;-75
2022/01/20 02:37:25;;;;;;;13.00;3.42;;;;;;;1.92;100.00;100458.13;4999375;28;20026;-75
2022/01/20 02:45:20;;;;;;;17.25;3.42;;;;;;;1.94;100.00;100464.28;4997379;28;20083;-75
2022/01/20 02:47:50;;;;;;;16.02;3.83;;;;;;;2.01;100.00;100461.69;4997975;28;20446;-76
2022/01/20 02:50:15;;;;;;;13.10;2.90;;;;;;;2.03;100.00;100448.56;4997316;28;20430;-75
2022/01/20 02:52:40;;;;;;;14.90;2.88;;;;;;;2.09;100.00;100464.41;4997011;28;20081;-75
2022/01/20 02:55:06;;;;;;;16.05;3.00;;;;;;;2.11;100.00;100462.66;4997022;28;20029;-75
2022/01/20 02:57:32;;;;;;;13.45;2.50;;;;;;;2.12;100.00;100459.16;4997004;28;20022;-75
2022/01/20 02:59:57;;;;;;;20.48;3.10;;;;;;;2.14;100.00;100448.63;4996813;28;20026;-75
2022/01/20 03:02:22;;;;;;;15.43;2.88;;;;;;;2.12;100.00;100438.09;4996912;28;20018;-75
2022/01/20 03:04:49;;;;;;;12.90;2.53;;;;;;;2.15;100.00;100437.22;4997045;28;20076;-75
2022/01/20 03:07:14;;;;;;;15.55;3.17;;;;;;;2.16;100.00;100440.75;4997071;28;20395;-75
2022/01/20 03:09:40;;;;;;;17.40;2.75;;;;;;;2.12;100.00;100432.81;4996723;28;20026;-75
2022/01/20 03:12:06;;;;;;;18.60;2.92;;;;;;;2.14;100.00;100442.50;4996550;28;20053;-75
2022/01/20 03:14:31;;;;;;;15.55;2.50;;;;;;;2.16;100.00;100438.13;4996659;28;20388;-75
2022/01/20 03:16:57;;;;;;;15.18;2.70;;;;;;;2.18;100.00;100441.63;4996861;28;20034;-75
2022/01/20 03:19:22;;;;;;;14.60;2.42;;;;;;;2.23;100.00;100429.38;4996559;28;20026;-75
2022/01/20 03:21:48;;;;;;;12.38;2.42;;;;;;;2.20;100.00;100429.34;4996496;28;20045;-75
2022/01/20 03:24:13;;;;;;;14.45;3.25;;;;;;;2.25;100.00;100426.75;4996434;28;20022;-74
2022/01/20 03:26:39;;;;;;;9.75;2.42;;;;;;;2.22;100.00;100417.06;4995189;28;20025;-75
2022/01/20 03:29:06;;;;;;;15.10;2.65;;;;;;;2.25;100.00;100414.44;4996323;28;20076;-75
2022/01/20 03:31:32;;;;;;;18.25;2.63;;;;;;;2.32;100.00;100415.41;4996267;28;20023;-74
2022/01/20 03:34:00;;;;;;;12.45;2.50;;;;;;;2.23;100.00;100418.84;4996334;28;20026;-75
2022/01/20 03:36:25;;;;;;;11.45;2.63;;;;;;;2.22;100.00;100419.69;4996239;28;20022;-75
2022/01/20 03:38:51;;;;;;;17.20;2.75;;;;;;;2.29;100.00;100429.44;4996165;28;20022;-75
2022/01/20 03:41:17;;;;;;;14.20;2.50;;;;;;;2.24;100.00;100412.72;4978681;28;20018;-75
2022/01/20 03:43:44;;;;;;;10.73;2.40;;;;;;;2.23;100.00;100439.91;4996114;28;20403;-75
2022/01/20 03:46:12;;;;;;;14.35;2.50;;;;;;;2.23;100.00;100445.19;4995173;28;20475;-75
2022/01/20 03:48:49;;;;;;;7.75;2.10;;;;;;;2.20;100.00;100445.16;4995962;28;20487;-75
2022/01/20 03:51:16;;;;;;;14.13;2.22;;;;;;;2.15;100.00;100442.50;4995893;28;20406;-75
2022/01/20 03:53:41;;;;;;;11.43;1.90;;;;;;;2.15;100.00;100433.72;4995948;28;20033;-75
2022/01/20 03:56:07;;;;;;;10.70;1.95;;;;;;;2.10;100.00;100434.56;4996194;28;20038;-75
2022/01/20 03:58:32;;;;;;;8.65;1.73;;;;;;;2.05;100.00;100428.38;4978968;28;20030;-75
2022/01/20 04:00:58;;;;;;;9.23;1.98;;;;;;;2.08;100.00;100446.84;4995774;28;20432;-75
2022/01/20 04:03:23;;;;;;;9.30;1.90;;;;;;;2.09;100.00;100448.59;4978374;28;20022;-74
2022/01/20 04:05:56;;;;;;;12.50;2.28;;;;;;;2.02;100.00;100446.78;4995751;28;20105;-74
2022/01/20 04:08:31;;;;;;;7.45;1.83;;;;;;;1.88;100.00;100459.88;4995699;28;20018;-74
2022/01/20 04:11:01;;;;;;;7.00;1.95;;;;;;;1.87;100.00;100464.25;4995474;28;20053;-74
2022/01/20 04:13:31;;;;;;;8.55;2.15;;;;;;;1.85;100.00;100470.34;4995647;28;20436;-74
2022/01/20 04:16:00;;;;;;;7.65;1.80;;;;;;;1.72;100.00;100486.03;4978575;28;20015;-75
2022/01/20 04:18:27;;;;;;;9.80;1.60;;;;;;;1.53;100.00;100490.22;4995602;28;20438;-75
2022/01/20 04:20:53;;;;;;;7.82;2.35;;;;;;;1.30;100.00;100480.31;4995658;28;20060;-74
2022/01/20 04:23:18;;;;;;;3.95;0.77;;;;;;;0.81;100.00;100497.25;4995600;28;20054;-74
2022/01/20 04:25:43;;;;;;;4.10;0.90;;;;;;;0.15;100.00;100506.81;4994319;28;20030;-75
2022/01/20 04:28:09;;;;;;;5.45;1.00;;;;;;;-0.06;100.00;100500.34;4995899;28;20030;-74
2022/01/20 04:30:34;;;;;;;3.85;0.80;;;;;;;-0.03;100.00;100510.91;4995219;28;20499;-74
2022/01/20 04:32:59;;;;;;;5.05;0.80;;;;;;;0.04;100.00;100517.13;4977748;28;20082;-74
2022/01/20 04:35:25;;;;;;;3.97;0.82;;;;;;;0.02;100.00;100514.47;4995023;28;20470;-74
2022/01/20 04:37:52;;;;;;;8.48;1.00;;;;;;;-0.12;100.00;100536.13;4995086;28;20440;-75
2022/01/20 04:40:19;;;;;;;4.93;1.35;;;;;;;-0.13;100.00;100536.97;4995298;28;20034;-76
2022/01/20 04:42:47;;;;;;;7.90;1.15;;;;;;;-0.06;100.00;100531.84;4994989;28;20388;-74
2022/01/20 04:45:17;;;;;;;10.18;1.50;;;;;;;0.00;100.00;100524.09;4977522;28;20027;-74
2022/01/20 04:47:50;;;;;;;9.27;1.27;;;;;;;0.04;100.00;100525.00;4995239;28;20030;-74
2022/01/20 04:58:28;;;;;;;9.50;1.75;;;;;;;0.33;100.00;100554.41;4994586;28;20087;-74
2022/01/20 05:00:53;;;;;;;5.97;1.10;;;;;;;0.35;100.00;100558.78;4994631;28;20022;-74
2022/01/20 05:03:18;;;;;;;11.73;1.58;;;;;;;0.30;100.00;100545.56;4994889;28;20022;-74
2022/01/20 05:05:44;;;;;;;11.48;1.65;;;;;;;0.28;100.00;100542.03;4994757;28;20421;-76
2022/01/20 05:08:09;;;;;;;8.10;1.80;;;;;;;0.29;100.00;100544.69;4993241;28;20023;-75
2022/01/20 05:10:35;;;;;;;15.13;1.80;;;;;;;0.30;100.00;100554.34;4993204;28;20023;-75
2022/01/20 05:13:21;;;;;;;8.80;1.50;;;;;;;0.22;100.00;100559.47;4976954;28;20456;-74
2022/01/20 05:15:46;;;;;;;15.18;1.70;;;;;;;0.21;100.00;100572.56;4994505;28;20204;-75
2022/01/20 05:18:12;;;;;;;9.63;1.80;;;;;;;0.26;100.00;100575.28;4994731;28;20105;-75
2022/01/20 05:20:37;;;;;;;12.50;1.77;;;;;;;0.27;100.00;100577.94;4994542;28;20034;-75
2022/01/20 05:23:02;;;;;;;10.05;1.63;;;;;;;0.25;100.00;100574.41;4994968;28;20034;-76
2022/01/20 05:25:27;;;;;;;11.75;1.88;;;;;;;0.22;100.00;100566.47;4994534;28;20484;-75
2022/01/20 05:27:54;;;;;;;9.90;1.80;;;;;;;0.24;100.00;100569.09;4994409;28;20076;-76
2022/01/20 05:30:19;;;;;;;12.63;2.65;;;;;;;0.18;100.00;100577.78;4976635;28;20080;-75
2022/01/20 05:32:44;;;;;;;15.98;2.35;;;;;;;0.18;100.00;100583.03;4994313;28;20527;-75
2022/01/20 05:35:10;;;;;;;12.05;1.77;;;;;;;0.19;100.00;100590.03;4992816;28;20034;-75
2022/01/20 05:37:35;;;;;;;13.95;2.97;;;;;;;0.18;100.00;100588.28;4994057;28;20030;-75
2022/01/20 05:40:01;;;;;;;14.25;2.28;;;;;;;0.17;100.00;100599.63;4976498;28;20026;-75
2022/01/20 05:42:26;;;;;;;18.50;2.40;;;;;;;0.29;100.00;100607.72;4994018;28;20025;-76
2022/01/20 05:44:52;;;;;;;16.02;2.30;;;;;;;0.31;100.00;100590.25;5003935;23;20043;-74
2022/01/20 05:47:25;;;;;;;15.82;2.60;;;;;;;0.29;100.00;100602.47;4993576;28;20103;-74
2022/01/20 05:49:51;;;;;;;16.70;2.63;;;;;;;0.31;100.00;100611.25;4976057;28;20113;-74
2022/01/20 05:52:17;;;;;;;20.75;3.60;;;;;;;0.35;100.00;100619.19;4992107;28;20117;-74
2022/01/20 05:54:42;;;;;;;15.13;2.83;;;;;;;0.36;100.00;100624.47;4993640;28;20109;-74
2022/01/20 05:57:10;;;;;;;15.77;2.40;;;;;;;0.39;100.00;100618.38;4993910;28;20018;-75
2022/01/20 05:59:35;;;;;;;11.15;2.17;;;;;;;0.39;100.00;100618.38;4992450;28;20019;-74
2022/01/20 06:02:09;;;;;;;15.95;2.55;;;;;;;0.42;100.00;100626.31;4994076;28;20106;-74
2022/01/20 06:04:35;;;;;;;18.80;3.10;;;;;;;0.46;100.00;100629.91;4992137;28;20026;-74
2022/01/20 06:07:00;;;;;;;17.92;2.78;;;;;;;0.49;100.00;100641.34;4993712;28;20022;-74
2022/01/20 06:09:25;;;;;;;17.05;2.70;;;;;;;0.44;100.00;100640.38;4995346;28;20033;-74
2022/01/20 06:11:51;;;;;;;15.75;2.72;;;;;;;0.42;100.00;100644.72;5000080;28;20045;-74
2022/01/20 06:14:16;;;;;;;20.70;3.47;;;;;;;0.36;100.00;100648.13;5000093;28;20045;-74
2022/01/20 06:16:42;;;;;;;17.67;2.78;;;;;;;0.36;100.00;100642.00;5000602;28;20026;-73
2022/01/20 06:19:07;;;;;;;15.35;3.00;;;;;;;0.25;100.00;100637.44;5000070;28;20027;-74
2022/01/20 06:21:32;;;;;;;15.40;2.67;;;;;;;0.20;100.00;100639.09;4999981;28;20076;-74
2022/01/20 06:23:58;;;;;;;15.48;3.13;;;;;;;0.18;100.00;100640.81;5000104;28;20042;-74
2022/01/20 06:26:23;;;;;;;19.15;4.18;;;;;;;0.25;100.00;100653.19;5000032;28;20426;-74
2022/01/20 06:28:48;;;;;;;17.55;3.28;;;;;;;0.23;100.00;100654.91;5000088;28;20026;-74
2022/01/20 06:31:15;;;;;;;14.07;2.30;;;;;;;0.17;100.00;100665.28;4999892;28;20022;-74
2022/01/20 06:33:40;;;;;;;16.17;2.85;;;;;;;0.12;100.00;100672.19;5000066;28;20030;-74
2022/01/20 06:36:05;;;;;;;13.48;2.53;;;;;;;0.01;100.00;100679.84;5000256;28;20033;-74
2022/01/20 06:38:31;;;;;;;11.65;2.63;;;;;;;0.02;100.00;100681.63;4998765;28;20112;-75
2022/01/20 06:40:56;;;;;;;16.95;3.20;;;;;;;-0.08;100.00;100684.09;4999980;28;20105;-75
2022/01/20 06:43:21;;;;;;;17.88;3.00;;;;;;;-0.09;100.00;100691.91;4998715;28;20403;-75
2022/01/20 06:45:47;;;;;;;19.63;2.63;;;;;;;-0.12;100.00;100706.75;4998550;28;20102;-74
2022/01/20 06:48:12;;;;;;;19.85;2.97;;;;;;;-0.03;100.00;100697.31;4999927;28;20026;-74
2022/01/20 06:50:38;;;;;;;13.25;2.90;;;;;;;0.00;100.00;100705.25;4999857;28;20026;-74
2022/01/20 06:53:03;;;;;;;18.90;2.72;;;;;;;0.03;100.00;100712.28;4999770;28;20030;-74
2022/01/20 06:55:29;;;;;;;15.32;2.60;;;;;;;0.04;100.00;100712.31;5000038;28;20117;-74
2022/01/20 06:57:54;;;;;;;13.40;2.30;;;;;;;0.00;100.00;100721.00;5000042;28;20030;-74
2022/01/20 07:00:23;;;;;;;18.10;3.35;;;;;;;0.03;100.00;100726.28;4999814;28;20026;-74
2022/01/20 07:02:50;;;;;;;18.25;2.60;;;;;;;0.01;100.00;100733.25;4999739;28;20026;-74
2022/01/20 07:05:17;;;;;;;11.68;2.58;;;;;;;0.12;100.00;100732.59;4999942;28;20507;-74
2022/01/20 07:07:42;;;;;;;15.30;2.67;;;;;;;0.12;100.00;100746.63;4999941;28;20068;-73
2022/01/20 07:10:09;;;;;;;19.80;3.17;;;;;;;0.12;100.00;100759.75;4999668;28;20049;-74
2022/01/20 07:12:35;;;;;;;14.43;2.38;;;;;;;0.06;100.00;100763.13;4998339;28;20025;-74
2022/01/20 07:15:01;;;;;;;11.65;2.75;;;;;;;0.05;100.00;100760.50;4999705;28;20053;-74
2022/01/20 07:17:26;;;;;;;17.30;2.50;;;;;;;0.03;100.00;100763.06;4998405;28;20057;-74
2022/01/20 07:19:51;;;;;;;11.45;2.83;;;;;;;0.03;100.00;100768.31;4999870;28;20018;-74
2022/01/20 07:22:17;;;;;;;17.52;2.95;;;;;;;0.01;100.00;100775.28;4997297;28;20031;-74
2022/01/20 07:24:43;;;;;;;17.50;2.80;;;;;;;-0.08;100.00;100765.47;4996772;28;20032;-74
2022/01/20 07:27:08;;;;;;;14.15;2.60;;;;;;;-0.06;100.00;100779.53;4995264;28;20052;-73
2022/01/20 07:29:34;;;;;;;13.57;2.33;;;;;;;-0.16;100.00;100804.69;4996403;28;20018;-74
2022/01/20 07:32:01;;;;;;;15.13;3.30;;;;;;;-0.18;100.00;100801.13;4996252;28;20509;-74
2022/01/20 07:34:27;;;;;;;19.85;2.72;;;;;;;-0.20;100.00;100797.56;4995092;28;20406;-74
2022/01/20 07:36:52;;;;;;;18.77;3.40;;;;;;;-0.18;100.00;100797.63;4996301;28;20076;-73
2022/01/20 07:39:17;;;;;;;12.27;2.67;;;;;;;-0.17;100.00;100800.28;4996245;28;20029;-73
2022/01/20 07:41:43;;;;;;;17.25;2.50;;;;;;;-0.15;100.00;100806.44;4994838;28;20042;-74
2022/01/20 07:44:09;;;;;;;18.75;2.85;;;;;;;-0.12;100.00;100801.28;4996061;28;20388;-73
2022/01/20 07:46:34;;;;;;;13.88;2.72;;;;;;;-0.08;100.00;100803.97;4996283;28;20054;-74
2022/01/20 07:49:00;;;;;;;12.77;2.47;;;;;;;-0.01;100.00;100798.91;4996113;28;20045;-74
2022/01/20 07:51:25;;;;;;;17.50;2.42;;;;;;;0.03;100.00;100799.81;4994602;28;20026;-74
2022/01/20 07:53:50;;;;;;;16.13;2.53;;;;;;;-0.01;100.00;100805.88;4995956;28;20506;-74
2022/01/20 07:56:16;;;;;;;15.23;2.75;;;;;;;0.02;100.00;100818.19;4996030;28;20029;-75
2022/01/20 07:58:41;;;;;;;16.17;2.60;;;;;;;0.03;100.00;100814.69;4995969;28;20026;-74
2022/01/20 08:01:06;;;;;;;15.73;2.88;;;;;;;0.07;100.00;100829.69;4995829;28;20053;-74
2022/01/20 08:03:32;;;;;;;13.85;2.75;;;;;;;0.06;100.00;100826.16;4996119;28;20026;-74
2022/01/20 08:05:57;;;;;;;16.63;2.60;;;;;;;-0.01;100.00;100833.03;4995765;28;20053;-74
2022/01/20 08:08:22;;;;;;;17.88;2.85;;;;;;;0.03;100.00;100835.69;4995870;28;20034;-74
2022/01/20 08:10:48;;;;;;;14.77;2.58;;;;;;;0.05;100.00;100832.25;4995614;28;20368;-74
2022/01/20 08:13:14;;;;;;;15.80;3.00;;;;;;;0.06;100.00;100839.28;4995856;28;20033;-74
2022/01/20 08:15:39;;;;;;;14.32;2.63;;;;;;;0.01;100.00;100838.31;4995908;28;20479;-74
2022/01/20 08:18:06;;;;;;;17.88;3.15;;;;;;;-0.10;100.00;100824.91;4995844;28;20030;-74
2022/01/20 08:20:33;;;;;;;11.15;2.50;;;;;;;-0.12;100.00;100827.53;4995653;28;20022;-74
2022/01/20 08:22:58;;;;;;;12.20;2.47;;;;;;;-0.19;100.00;100845.72;4994186;28;20019;-74
2022/01/20 08:25:24;;;;;;;11.43;2.60;;;;;;;-0.24;100.00;100830.75;4995402;28;20133;-74
2022/01/20 08:27:49;;;;;;;12.73;2.50;;;;;;;-0.19;100.00;100836.13;4994124;28;20034;-74
2022/01/20 08:30:17;;;;;;;11.65;2.30;;;;;;;-0.26;100.00;100849.94;4995194;28;20033;-74
2022/01/20 08:32:44;;;;;;;14.23;2.10;;;;;;;-0.27;100.00;100854.31;4994793;28;20427;-74
2022/01/20 08:35:10;;;;;;;10.25;2.08;;;;;;;-0.29;100.00;100849.88;4993911;28;20030;-74
2022/01/20 08:37:40;;;;;;;9.85;2.00;;;;;;;-0.25;100.00;100849.09;4995154;28;20566;-74
2022/01/20 08:40:16;;;;;;;8.30;1.98;;;;;;;-0.35;100.00;100841.00;4993824;28;20029;-74
2022/01/20 08:42:43;;;;;;;12.68;2.00;;;;;;;-0.40;100.00;100837.38;4995389;28;20032;-74
2022/01/20 08:45:10;;;;;;;12.00;1.90;;;;;;;-0.37;100.00;100839.19;4994902;28;20041;-73
2022/01/20 08:47:36;;;;;;;9.23;1.75;;;;;;;-0.35;100.00;100835.75;4995009;28;20157;-74
2022/01/20 08:50:05;;;;;;;8.48;2.03;;;;;;;-0.32;100.00;100840.19;4993620;28;20122;-74
2022/01/20 08:52:31;;;;;;;8.95;2.20;;;;;;;-0.24;100.00;100832.50;4993505;28;20023;-74
2022/01/20 08:54:58;;;;;;;8.60;2.10;;;;;;;0.01;100.00;100848.81;4994849;28;20030;-74
2022/01/20 08:57:27;;;;;;;10.05;2.13;;;;;;;0.08;100.00;100849.81;4995065;28;20046;-73
2022/01/20 08:59:53;;;;;;;10.35;2.22;;;;;;;0.14;100.00;100849.97;4994661;28;20034;-73
2022/01/20 09:02:19;;;;;;;16.30;2.88;;;;;;;0.12;100.00;100850.78;4994970;28;20032;-73
2022/01/20 09:04:44;;;;;;;15.18;2.67;;;;;;;0.03;100.00;100857.59;4994952;28;20034;-74
2022/01/20 09:07:10;;;;;;;10.23;2.45;;;;;;;-0.01;100.00;100861.03;4994928;28;20133;-75
2022/01/20 09:09:41;;;;;;;17.50;3.08;;;;;;;-0.01;100.00;100866.28;4994538;28;20101;-74
2022/01/20 09:17:23;;;;;;;16.33;3.60;;;;;;;-0.05;100.00;100864.44;4974231;28;20211;-74
2022/01/20 09:19:48;;;;;;;12.13;2.47;;;;;;;-0.10;100.00;100871.31;4993213;28;20560;-73
2022/01/20 09:22:14;;;;;;;13.38;2.40;;;;;;;0.00;100.00;100847.06;4993008;28;20045;-73
2022/01/20 09:24:40;;;;;;;18.88;3.15;;;;;;;0.02;100.00;100858.47;4994399;28;20402;-73
2022/01/20 09:27:06;;;;;;;16.27;2.63;;;;;;;0.14;100.00;100863.09;4994246;28;20395;-74
2022/01/20 09:29:32;;;;;;;14.15;2.78;;;;;;;0.22;100.00;100863.28;4994230;28;20018;-73
2022/01/20 09:31:58;;;;;;;14.13;2.55;;;;;;;0.39;100.00;100857.47;4994050;28;20022;-74
2022/01/20 09:34:24;;;;;;;10.38;2.47;;;;;;;0.47;100.00;100873.41;4994406;28;20034;-74
2022/01/20 09:36:50;;;;;;;17.23;3.53;;;;;;;0.47;100.00;100873.41;4992817;28;20399;-73
2022/01/20 09:39:15;;;;;;;13.40;2.95;;;;;;;0.42;100.00;100878.56;4995163;28;20061;-73
2022/01/20 09:41:40;;;;;;;20.55;4.10;;;;;;;0.23;100.00;100888.69;4993961;28;20077;-73
2022/01/20 09:44:06;;;;;;;20.02;3.90;;;;;;;0.20;100.00;100875.50;4993539;28;20045;-73
2022/01/20 09:46:32;;;;;;;13.15;2.90;;;;;;;0.20;100.00;100892.16;4992869;28;20023;-73
2022/01/20 09:48:58;;;;;;;16.88;3.03;;;;;;;0.15;100.00;100893.78;4994330;28;20033;-74
2022/01/20 09:51:25;;;;;;;14.48;2.80;;;;;;;0.07;100.00;100901.47;4993769;28;20019;-74
2022/01/20 09:53:51;;;;;;;13.60;2.58;;;;;;;-0.04;100.00;100898.59;4993870;28;20041;-73
2022/01/20 09:56:16;;;;;;;11.30;2.58;;;;;;;-0.12;100.00;100887.91;4993885;28;20022;-74
2022/01/20 09:58:43;;;;;;;15.00;2.40;;;;;;;-0.06;100.00;100899.41;4994082;28;20026;-74
2022/01/20 10:01:08;;;;;;;11.85;2.38;;;;;;;0.03;100.00;100894.38;4993782;28;20022;-74
2022/01/20 10:03:36;;;;;;;11.48;2.85;;;;;;;0.15;100.00;100909.53;4992544;28;20092;-73
2022/01/20 10:06:02;;;;;;;11.43;2.28;;;;;;;0.23;100.00;100904.47;4992452;28;20498;-74
2022/01/20 10:08:30;;;;;;;16.00;2.63;;;;;;;0.44;100.00;100896.16;4994191;28;20034;-74
2022/01/20 10:11:01;;;;;;;13.35;2.30;;;;;;;0.61;100.00;100907.88;4993590;28;20049;-75
2022/01/20 10:13:29;;;;;;;12.57;2.35;;;;;;;0.63;100.00;100919.31;4992790;28;20083;-74
2022/01/20 10:16:02;;;;;;;15.27;2.13;;;;;;;0.81;100.00;100896.88;4993649;28;20022;-74
2022/01/20 10:18:29;;;;;;;17.92;2.70;;;;;;;0.83;100.00;100895.16;4994023;28;20023;-74
2022/01/20 10:21:03;;;;;;;15.85;2.65;;;;;;;1.04;100.00;100899.09;4993425;28;20395;-74
2022/01/20 10:23:40;;;;;;;16.27;2.83;;;;;;;0.92;100.00;100887.50;4992411;28;20014;-74
2022/01/20 10:26:16;;;;;;;14.57;2.75;;;;;;;0.89;100.00;100884.78;4992481;28;20027;-73
2022/01/20 10:29:05;;;;;;;14.60;2.58;;;;;;;0.82;100.00;100890.78;4993572;28;20026;-74
2022/01/20 10:31:41;;;;;;;14.10;2.50;;;;;;;0.89;100.00;100892.69;4993526;28;20379;-74
2022/01/20 10:34:34;;;;;;;15.40;2.92;;;;;;;0.95;100.00;100902.44;4993748;28;20033;-74
2022/01/20 10:37:13;;;;;;;13.82;2.40;;;;;;;0.88;100.00;100896.16;4993444;28;20395;-74
2022/01/20 10:39:43;;;;;;;14.50;2.40;;;;;;;0.95;100.00;100903.34;4994056;28;20169;-74
2022/01/20 10:42:10;;;;;;;11.55;2.78;;;;;;;0.94;100.00;100900.66;4993582;28;20022;-74
2022/01/20 10:44:41;;;;;;;15.45;2.47;;;;;;;0.77;100.00;100911.72;4993420;28;20038;-74
2022/01/20 10:47:11;;;;;;;11.85;2.50;;;;;;;0.37;100.00;100919.63;4993655;28;20038;-74
2022/01/20 10:49:36;;;;;;;15.00;2.35;;;;;;;-0.02;100.00;100922.25;4992058;28;20030;-74
2022/01/20 10:52:05;;;;;;;14.48;3.38;;;;;;;-0.15;100.00;100927.22;4993163;28;20014;-74
2022/01/20 10:54:38;;;;;;;17.65;2.58;;;;;;;-0.08;100.00;100925.63;4993236;28;20038;-74
2022/01/20 10:57:04;;;;;;;10.88;2.67;;;;;;;0.00;100.00;100910.06;4996185;28;20034;-74
2022/01/20 10:59:29;;;;;;;14.70;2.58;;;;;;;0.09;100.00;100926.03;4997092;28;20052;-74
2022/01/20 11:02:01;;;;;;;20.63;3.40;;;;;;;0.21;100.00;100925.41;4996833;28;20027;-74
2022/01/20 11:04:28;;;;;;;15.40;2.92;;;;;;;0.33;100.00;100924.84;4997406;28;20030;-74
2022/01/20 11:06:56;;;;;;;14.07;2.35;;;;;;;0.40;100.00;100919.69;4995303;28;20027;-74
2022/01/20 11:09:22;;;;;;;15.15;2.40;;;;;;;0.43;100.00;100919.78;4996738;28;20475;-74
2022/01/20 11:11:48;;;;;;;12.50;2.55;;;;;;;0.45;100.00;100923.31;4996541;28;20023;-74
2022/01/20 11:14:14;;;;;;;15.27;3.38;;;;;;;0.50;100.00;100926.03;4996672;28;20033;-73
2022/01/20 11:16:40;;;;;;;15.65;2.97;;;;;;;0.58;100.00;100923.59;4996602;28;20026;-74
2022/01/20 11:19:21;;;;;;;15.32;2.95;;;;;;;0.76;100.00;100917.84;4995279;28;20026;-74
2022/01/20 11:21:48;;;;;;;13.05;2.83;;;;;;;0.97;100.00;100900.72;4996956;28;20068;-73
2022/01/20 11:24:31;;;;;;;15.02;2.47;;;;;;;1.11;100.00;100909.75;4996406;28;20035;-74
2022/01/20 11:26:58;;;;;;;14.03;2.40;;;;;;;1.14;100.00;100903.66;4996718;28;20026;-74
2022/01/20 11:29:37;;;;;;;14.50;2.72;;;;;;;1.11;100.00;100909.75;4996567;28;20538;-74
2022/01/20 11:32:14;;;;;;;12.68;2.60;;;;;;;1.17;100.00;100895.84;4996307;28;20103;-74
2022/01/20 11:34:39;;;;;;;12.55;2.55;;;;;;;1.23;100.00;100887.19;4996608;28;20487;-73
2022/01/20 11:37:09;;;;;;;11.82;2.92;;;;;;;1.15;100.00;100897.56;4995023;28;20026;-74
2022/01/20 11:39:34;;;;;;;16.73;2.90;;;;;;;1.04;100.00;100894.72;4994899;28;20018;-73
2022/01/20 11:42:01;;;;;;;11.60;2.42;;;;;;;1.06;100.00;100900.88;4996153;28;20029;-73
2022/01/20 11:44:29;;;;;;;9.88;2.28;;;;;;;1.04;100.00;100906.97;5023215;23;20498;-86
2022/01/20 11:47:07;;;;;;;14.68;2.15;;;;;;;1.02;100.00;100885.03;5016887;28;20025;-86
2022/01/20 11:49:38;;;;;;;11.52;2.75;;;;;;;1.05;100.00;100867.56;5016598;28;20030;-85
2022/01/20 11:52:04;;;;;;;11.07;2.10;;;;;;;1.09;100.00;100868.50;4998991;28;20037;-85
2022/01/20 11:54:30;;;;;;;12.15;2.53;;;;;;;1.10;100.00;100870.28;5016723;28;20022;-86
2022/01/20 12:06:14;;;;;;;12.32;2.45;;;;;;;0.97;100.00;100883.19;5022424;22;20502;-76
2022/01/20 12:09:01;;;;;;;13.23;2.30;;;;;;;1.07;100.00;100867.59;4996831;28;20034;-76
2022/01/20 12:11:41;;;;;;;10.57;2.00;;;;;;;1.11;100.00;100872.94;5007025;28;20548;-76
2022/01/20 12:14:07;;;;;;;9.32;2.92;;;;;;;1.10;100.00;100879.06;5015284;28;20034;-76
2022/01/20 12:16:34;;;;;;;11.68;2.55;;;;;;;1.15;100.00;100875.63;5015429;28;20093;-76
2022/01/20 12:19:00;;;;;;;14.30;2.95;;;;;;;1.19;100.00;100878.34;5015121;28;20048;-76
2022/01/20 12:21:30;;;;;;;11.95;2.28;;;;;;;1.15;100.00;100873.88;5015084;28;20029;-76
2022/01/20 12:23:56;;;;;;;17.00;2.75;;;;;;;1.14;100.00;100872.09;5013798;28;20051;-76
2022/01/20 12:26:22;;;;;;;14.50;2.60;;;;;;;1.20;100.00;100872.22;5014981;28;20057;-76
2022/01/20 12:29:08;;;;;;;16.60;2.45;;;;;;;1.31;100.00;100864.53;5015197;28;20068;-76
2022/01/20 12:31:51;;;;;;;14.82;2.67;;;;;;;1.32;99.81;100865.41;5014830;28;20053;-76
2022/01/20 12:34:19;;;;;;;13.95;2.33;;;;;;;1.46;100.00;100881.44;5014936;28;20018;-76